createdAt,value
2017-02-01T00:00:02.814Z,927.16
2017-02-01T00:00:22.587Z,927.17
2017-02-01T00:00:43.010Z,927.17
2017-02-01T00:01:03.413Z,927.18
2017-02-01T00:01:23.823Z,927.15
2017-02-01T00:01:44.207Z,927.22
2017-02-01T00:02:04.628Z,927.16
2017-02-01T00:02:24.393Z,927.16
2017-02-01T00:02:44.837Z,927.22
2017-02-01T00:03:05.256Z,927.18
2017-02-01T00:03:25.667Z,927.19
2017-02-01T00:03:45.461Z,927.15
2017-02-01T00:04:05.850Z,927.21
2017-02-01T00:04:26.289Z,927.13
2017-02-01T00:04:46.702Z,927.19
2017-02-01T00:05:07.112Z,927.18
2017-02-01T00:05:27.550Z,927.15
2017-02-01T00:05:47.319Z,927.2
2017-02-01T00:06:07.693Z,927.22
2017-02-01T00:06:27.472Z,927.2
2017-02-01T00:06:47.899Z,927.13
2017-02-01T00:07:08.330Z,927.21
2017-02-01T00:07:28.752Z,927.21
2017-02-01T00:07:49.148Z,927.22
2017-02-01T00:08:09.697Z,927.22
2017-02-01T00:08:29.419Z,927.15
2017-02-01T00:08:49.793Z,927.18
2017-02-01T00:09:10.208Z,927.15
2017-02-01T00:09:29.978Z,927.28
2017-02-01T00:09:50.324Z,927.19
2017-02-01T00:10:10.737Z,927.2
2017-02-01T00:10:31.176Z,927.18
2017-02-01T00:10:50.928Z,927.17
2017-02-01T00:11:11.331Z,927.16
2017-02-01T00:11:31.747Z,927.19
2017-02-01T00:11:52.172Z,927.22
2017-02-01T00:12:12.598Z,927.2
2017-02-01T00:12:32.386Z,927.19
2017-02-01T00:12:52.804Z,927.19
2017-02-01T00:13:13.450Z,927.14
2017-02-01T00:13:34.221Z,927.14
2017-02-01T00:13:53.994Z,927.22
2017-02-01T00:14:14.407Z,927.17
2017-02-01T00:14:34.815Z,927.2
2017-02-01T00:14:55.241Z,927.18
2017-02-01T00:15:15.631Z,927.15
2017-02-01T00:15:36.027Z,927.16
2017-02-01T00:15:56.402Z,927.18
2017-02-01T00:16:16.850Z,927.17
2017-02-01T00:16:37.272Z,927.17
2017-02-01T00:16:57.694Z,927.16
2017-02-01T00:17:18.083Z,927.16
2017-02-01T00:17:37.816Z,927.17
2017-02-01T00:17:58.234Z,927.18
2017-02-01T00:18:18.644Z,927.16
2017-02-01T00:18:39.098Z,927.13
2017-02-01T00:18:59.533Z,927.14
2017-02-01T00:19:19.949Z,927.11
2017-02-01T00:19:40.344Z,927.11
2017-02-01T00:20:00.751Z,927.12
2017-02-01T00:20:21.143Z,927.15
2017-02-01T00:20:41.573Z,927.11
2017-02-01T00:21:02.000Z,927.13
2017-02-01T00:21:22.408Z,927.12
2017-02-01T00:21:42.144Z,927.12
2017-02-01T00:22:02.556Z,927.11
2017-02-01T00:22:22.314Z,927.13
2017-02-01T00:22:42.065Z,927.14
2017-02-01T00:23:01.812Z,927.17
2017-02-01T00:23:22.203Z,927.13
2017-02-01T00:23:42.593Z,927.19
2017-02-01T00:24:02.980Z,927.17
2017-02-01T00:24:23.413Z,927.1
2017-02-01T00:24:43.780Z,927.13
2017-02-01T00:25:04.227Z,927.11
2017-02-01T00:25:23.964Z,927.11
2017-02-01T00:25:44.361Z,927.16
2017-02-01T00:26:04.780Z,927.15
2017-02-01T00:26:25.168Z,927.08
2017-02-01T00:26:45.551Z,927.12
2017-02-01T00:27:05.965Z,927.09
2017-02-01T00:27:26.379Z,927.07
2017-02-01T00:27:46.796Z,927.08
2017-02-01T00:28:06.547Z,927.05
2017-02-01T00:28:27.003Z,927.05
2017-02-01T00:28:47.406Z,927.07
2017-02-01T00:29:07.852Z,927.04
2017-02-01T00:29:27.630Z,927
2017-02-01T00:29:48.455Z,927.03
2017-02-01T00:30:08.852Z,927.07
2017-02-01T00:30:29.260Z,927.02
2017-02-01T00:30:49.653Z,927.1
2017-02-01T00:31:10.084Z,927
2017-02-01T00:31:30.488Z,927.05
2017-02-01T00:31:50.233Z,927.06
2017-02-01T00:32:10.673Z,927.05
2017-02-01T00:32:31.070Z,927.12
2017-02-01T00:32:51.634Z,927.1
2017-02-01T00:33:12.034Z,927.11
2017-02-01T00:33:32.453Z,927.12
2017-02-01T00:33:52.882Z,927.09
2017-02-01T00:34:13.351Z,927.1
2017-02-01T00:34:33.741Z,927.16
2017-02-01T00:34:54.152Z,927.18
2017-02-01T00:35:14.451Z,927.15
2017-02-01T00:35:34.871Z,927.17
2017-02-01T00:35:55.310Z,927.19
2017-02-01T00:36:15.724Z,927.21
2017-02-01T00:36:36.139Z,927.22
2017-02-01T00:36:56.538Z,927.21
2017-02-01T00:37:16.953Z,927.23
2017-02-01T00:37:37.377Z,927.22
2017-02-01T00:37:57.772Z,927.28
2017-02-01T00:38:18.161Z,927.21
2017-02-01T00:38:38.542Z,927.26
2017-02-01T00:38:58.953Z,927.25
2017-02-01T00:39:19.348Z,927.29
2017-02-01T00:39:39.740Z,927.3
2017-02-01T00:40:00.154Z,927.29
2017-02-01T00:40:20.117Z,927.29
2017-02-01T00:40:40.513Z,927.28
2017-02-01T00:41:00.955Z,927.31
2017-02-01T00:41:21.967Z,927.25
2017-02-01T00:41:42.374Z,927.3
2017-02-01T00:42:02.783Z,927.28
2017-02-01T00:42:23.207Z,927.24
2017-02-01T00:42:43.619Z,927.26
2017-02-01T00:43:04.036Z,927.29
2017-02-01T00:43:25.035Z,927.25
2017-02-01T00:43:45.453Z,927.27
2017-02-01T00:44:05.836Z,927.26
2017-02-01T00:44:26.219Z,927.26
2017-02-01T00:44:46.623Z,927.26
2017-02-01T00:45:07.017Z,927.31
2017-02-01T00:45:27.428Z,927.29
2017-02-01T00:45:47.845Z,927.27
2017-02-01T00:46:08.226Z,927.22
2017-02-01T00:46:27.969Z,927.26
2017-02-01T00:46:48.388Z,927.23
2017-02-01T00:47:08.777Z,927.26
2017-02-01T00:47:29.128Z,927.27
2017-02-01T00:47:48.895Z,927.25
2017-02-01T00:48:09.307Z,927.27
2017-02-01T00:48:28.433Z,927.24
2017-02-01T00:48:48.874Z,927.32
2017-02-01T00:49:09.254Z,927.22
2017-02-01T00:49:29.031Z,927.27
2017-02-01T00:49:49.460Z,927.25
2017-02-01T00:50:09.908Z,927.26
2017-02-01T00:50:30.292Z,927.29
2017-02-01T00:50:50.708Z,927.26
2017-02-01T00:51:11.120Z,927.3
2017-02-01T00:51:31.511Z,927.28
2017-02-01T00:51:51.923Z,927.27
2017-02-01T00:52:11.666Z,927.3
2017-02-01T00:52:32.081Z,927.29
2017-02-01T00:52:52.507Z,927.32
2017-02-01T00:53:12.915Z,927.31
2017-02-01T00:53:33.343Z,927.31
2017-02-01T00:53:54.272Z,927.37
2017-02-01T00:54:14.116Z,927.33
2017-02-01T00:54:34.531Z,927.36
2017-02-01T00:54:54.946Z,927.37
2017-02-01T00:55:14.765Z,927.39
2017-02-01T00:55:34.533Z,927.4
2017-02-01T00:55:54.980Z,927.34
2017-02-01T00:56:15.408Z,927.37
2017-02-01T00:56:35.844Z,927.37
2017-02-01T00:56:56.305Z,927.37
2017-02-01T00:57:16.686Z,927.38
2017-02-01T00:57:37.111Z,927.38
2017-02-01T00:57:57.544Z,927.37
2017-02-01T00:58:17.978Z,927.4
2017-02-01T00:58:38.403Z,927.37
2017-02-01T00:58:58.821Z,927.38
2017-02-01T00:59:19.246Z,927.34
2017-02-01T00:59:39.672Z,927.33
2017-02-01T01:00:00.066Z,927.33
2017-02-01T01:00:19.857Z,927.3
2017-02-01T01:00:40.293Z,927.34
2017-02-01T01:01:00.724Z,927.35
2017-02-01T01:01:21.176Z,927.31
2017-02-01T01:01:41.162Z,927.32
2017-02-01T01:02:02.185Z,927.34
2017-02-01T01:02:22.681Z,927.3
2017-02-01T01:02:43.100Z,927.32
2017-02-01T01:03:03.517Z,927.34
2017-02-01T01:03:23.896Z,927.29
2017-02-01T01:03:44.336Z,927.3
2017-02-01T01:04:04.781Z,927.31
2017-02-01T01:04:25.291Z,927.31
2017-02-01T01:04:45.080Z,927.33
2017-02-01T01:05:05.452Z,927.28
2017-02-01T01:05:25.871Z,927.3
2017-02-01T01:05:46.312Z,927.29
2017-02-01T01:06:06.719Z,927.3
2017-02-01T01:06:26.502Z,927.27
2017-02-01T01:06:46.233Z,927.29
2017-02-01T01:07:06.677Z,927.28
2017-02-01T01:07:26.484Z,927.26
2017-02-01T01:07:46.862Z,927.28
2017-02-01T01:08:07.295Z,927.23
2017-02-01T01:08:27.699Z,927.23
2017-02-01T01:08:48.117Z,927.25
2017-02-01T01:09:07.868Z,927.26
2017-02-01T01:09:28.328Z,927.22
2017-02-01T01:09:48.727Z,927.21
2017-02-01T01:10:09.110Z,927.22
2017-02-01T01:10:29.504Z,927.21
2017-02-01T01:10:49.914Z,927.21
2017-02-01T01:11:10.305Z,927.21
2017-02-01T01:11:30.745Z,927.19
2017-02-01T01:11:51.285Z,927.25
2017-02-01T01:12:11.716Z,927.21
2017-02-01T01:12:32.096Z,927.23
2017-02-01T01:12:52.524Z,927.24
2017-02-01T01:13:12.941Z,927.24
2017-02-01T01:13:33.329Z,927.25
2017-02-01T01:13:53.097Z,927.21
2017-02-01T01:14:13.516Z,927.24
2017-02-01T01:14:33.884Z,927.2
2017-02-01T01:14:54.319Z,927.28
2017-02-01T01:15:14.684Z,927.23
2017-02-01T01:15:35.086Z,927.21
2017-02-01T01:15:55.517Z,927.21
2017-02-01T01:16:15.974Z,927.15
2017-02-01T01:16:35.715Z,927.18
2017-02-01T01:16:56.093Z,927.2
2017-02-01T01:17:16.529Z,927.17
2017-02-01T01:17:36.940Z,927.19
2017-02-01T01:17:57.339Z,927.15
2017-02-01T01:18:17.762Z,927.16
2017-02-01T01:18:38.144Z,927.2
2017-02-01T01:18:58.533Z,927.19
2017-02-01T01:19:18.906Z,927.18
2017-02-01T01:19:39.279Z,927.21
2017-02-01T01:19:59.061Z,927.23
2017-02-01T01:20:19.680Z,927.17
2017-02-01T01:20:40.090Z,927.17
2017-02-01T01:21:00.643Z,927.15
2017-02-01T01:21:21.082Z,927.11
2017-02-01T01:21:40.975Z,927.15
2017-02-01T01:22:01.416Z,927.18
2017-02-01T01:22:21.818Z,927.14
2017-02-01T01:22:42.229Z,927.09
2017-02-01T01:23:02.000Z,927.08
2017-02-01T01:23:22.906Z,927.09
2017-02-01T01:23:43.286Z,927.08
2017-02-01T01:24:03.045Z,927.05
2017-02-01T01:24:23.438Z,927.07
2017-02-01T01:24:43.882Z,927.06
2017-02-01T01:25:04.310Z,927.05
2017-02-01T01:25:24.744Z,927.07
2017-02-01T01:25:45.116Z,927.08
2017-02-01T01:26:05.487Z,927.04
2017-02-01T01:26:25.261Z,927.02
2017-02-01T01:26:45.683Z,927.02
2017-02-01T01:27:06.200Z,927.01
2017-02-01T01:27:26.658Z,927.03
2017-02-01T01:27:47.167Z,926.99
2017-02-01T01:28:06.953Z,927.01
2017-02-01T01:28:27.316Z,927.03
2017-02-01T01:28:47.709Z,927.01
2017-02-01T01:29:08.143Z,927.01
2017-02-01T01:29:28.611Z,927.01
2017-02-01T01:29:48.388Z,927.01
2017-02-01T01:30:08.808Z,927.01
2017-02-01T01:30:29.229Z,927.03
2017-02-01T01:30:49.625Z,926.99
2017-02-01T01:31:10.020Z,927
2017-02-01T01:31:30.471Z,927.04
2017-02-01T01:31:50.862Z,926.98
2017-02-01T01:32:10.587Z,927
2017-02-01T01:32:30.354Z,927.03
2017-02-01T01:32:50.782Z,926.99
2017-02-01T01:33:11.199Z,926.98
2017-02-01T01:33:31.634Z,926.99
2017-02-01T01:33:52.045Z,926.96
2017-02-01T01:34:12.554Z,926.98
2017-02-01T01:34:32.956Z,926.91
2017-02-01T01:34:53.368Z,926.95
2017-02-01T01:35:13.767Z,926.95
2017-02-01T01:35:34.137Z,926.93
2017-02-01T01:35:54.547Z,926.96
2017-02-01T01:36:14.308Z,926.96
2017-02-01T01:36:34.059Z,926.93
2017-02-01T01:36:54.539Z,926.92
2017-02-01T01:37:14.412Z,926.91
2017-02-01T01:37:34.853Z,926.9
2017-02-01T01:37:55.321Z,926.91
2017-02-01T01:38:15.744Z,926.89
2017-02-01T01:38:35.585Z,926.91
2017-02-01T01:38:55.995Z,926.9
2017-02-01T01:39:16.452Z,926.91
2017-02-01T01:39:36.864Z,926.85
2017-02-01T01:39:57.257Z,926.89
2017-02-01T01:40:17.039Z,926.88
2017-02-01T01:40:37.459Z,926.89
2017-02-01T01:40:57.869Z,926.89
2017-02-01T01:41:18.300Z,926.89
2017-02-01T01:41:39.423Z,926.9
2017-02-01T01:42:00.232Z,926.89
2017-02-01T01:42:20.664Z,926.83
2017-02-01T01:42:41.067Z,926.86
2017-02-01T01:43:01.457Z,926.85
2017-02-01T01:43:21.217Z,926.88
2017-02-01T01:43:41.645Z,926.86
2017-02-01T01:44:02.042Z,926.84
2017-02-01T01:44:21.791Z,926.86
2017-02-01T01:44:42.182Z,926.85
2017-02-01T01:45:02.754Z,926.85
2017-02-01T01:45:22.498Z,926.89
2017-02-01T01:45:42.919Z,926.89
2017-02-01T01:46:03.324Z,926.88
2017-02-01T01:46:23.721Z,926.86
2017-02-01T01:46:44.107Z,926.88
2017-02-01T01:47:04.527Z,926.88
2017-02-01T01:47:24.916Z,926.87
2017-02-01T01:47:45.296Z,926.88
2017-02-01T01:48:05.740Z,926.86
2017-02-01T01:48:26.126Z,926.9
2017-02-01T01:48:46.553Z,926.87
2017-02-01T01:49:06.987Z,926.92
2017-02-01T01:49:27.370Z,926.86
2017-02-01T01:49:47.120Z,926.88
2017-02-01T01:50:07.740Z,926.9
2017-02-01T01:50:27.577Z,926.87
2017-02-01T01:50:48.069Z,926.91
2017-02-01T01:51:08.481Z,926.9
2017-02-01T01:51:28.256Z,926.9
2017-02-01T01:51:48.671Z,926.86
2017-02-01T01:52:09.101Z,926.87
2017-02-01T01:52:29.501Z,926.9
2017-02-01T01:52:49.405Z,926.87
2017-02-01T01:53:09.780Z,926.84
2017-02-01T01:53:30.182Z,926.86
2017-02-01T01:53:50.584Z,926.88
2017-02-01T01:54:10.996Z,926.9
2017-02-01T01:54:31.394Z,926.91
2017-02-01T01:54:51.796Z,926.86
2017-02-01T01:55:11.559Z,926.88
2017-02-01T01:55:31.975Z,926.88
2017-02-01T01:55:52.372Z,926.9
2017-02-01T01:56:12.778Z,926.86
2017-02-01T01:56:33.217Z,926.88
2017-02-01T01:56:53.657Z,926.9
2017-02-01T01:57:14.100Z,926.88
2017-02-01T01:57:33.835Z,926.91
2017-02-01T01:57:54.237Z,926.86
2017-02-01T01:58:13.995Z,926.9
2017-02-01T01:58:33.762Z,926.9
2017-02-01T01:58:54.125Z,926.89
2017-02-01T01:59:14.494Z,926.92
2017-02-01T01:59:34.884Z,926.89
2017-02-01T01:59:55.301Z,926.83
2017-02-01T02:00:15.065Z,926.84
2017-02-01T02:00:35.451Z,926.87
2017-02-01T02:00:55.845Z,926.88
2017-02-01T02:01:16.241Z,926.89
2017-02-01T02:01:35.972Z,926.9
2017-02-01T02:01:56.373Z,926.89
2017-02-01T02:02:16.108Z,926.91
2017-02-01T02:02:36.492Z,926.94
2017-02-01T02:02:56.892Z,926.89
2017-02-01T02:03:17.244Z,926.92
2017-02-01T02:03:37.655Z,926.91
2017-02-01T02:03:58.061Z,926.92
2017-02-01T02:04:18.475Z,926.92
2017-02-01T02:04:38.903Z,926.89
2017-02-01T02:04:59.293Z,926.89
2017-02-01T02:05:19.022Z,926.88
2017-02-01T02:05:39.416Z,926.87
2017-02-01T02:05:59.813Z,926.87
2017-02-01T02:06:20.231Z,926.83
2017-02-01T02:06:40.643Z,926.88
2017-02-01T02:07:01.039Z,926.86
2017-02-01T02:07:20.813Z,926.85
2017-02-01T02:07:41.225Z,926.85
2017-02-01T02:08:01.639Z,926.85
2017-02-01T02:08:22.023Z,926.83
2017-02-01T02:08:42.422Z,926.86
2017-02-01T02:09:02.868Z,926.82
2017-02-01T02:09:22.651Z,926.85
2017-02-01T02:09:43.083Z,926.86
2017-02-01T02:10:03.534Z,926.88
2017-02-01T02:10:23.938Z,926.87
2017-02-01T02:10:44.345Z,926.86
2017-02-01T02:11:04.769Z,926.82
2017-02-01T02:11:24.520Z,926.83
2017-02-01T02:11:44.954Z,926.85
2017-02-01T02:12:05.394Z,926.86
2017-02-01T02:12:25.121Z,926.88
2017-02-01T02:12:45.603Z,926.85
2017-02-01T02:13:05.989Z,926.87
2017-02-01T02:13:26.401Z,926.86
2017-02-01T02:13:46.770Z,926.88
2017-02-01T02:14:07.176Z,926.9
2017-02-01T02:14:27.550Z,926.88
2017-02-01T02:14:47.979Z,926.88
2017-02-01T02:15:08.371Z,926.88
2017-02-01T02:15:28.135Z,926.9
2017-02-01T02:15:48.509Z,926.89
2017-02-01T02:16:08.895Z,926.91
2017-02-01T02:16:29.311Z,926.9
2017-02-01T02:16:49.680Z,926.9
2017-02-01T02:17:10.111Z,926.9
2017-02-01T02:17:29.859Z,926.9
2017-02-01T02:17:50.251Z,926.91
2017-02-01T02:18:10.686Z,926.91
2017-02-01T02:18:31.120Z,926.92
2017-02-01T02:18:51.551Z,926.9
2017-02-01T02:19:11.957Z,926.92
2017-02-01T02:19:32.375Z,926.95
2017-02-01T02:19:52.801Z,926.92
2017-02-01T02:20:13.175Z,926.94
2017-02-01T02:20:33.564Z,926.94
2017-02-01T02:20:53.960Z,926.94
2017-02-01T02:21:14.324Z,926.92
2017-02-01T02:21:34.731Z,926.91
2017-02-01T02:21:55.088Z,926.9
2017-02-01T02:22:15.478Z,926.89
2017-02-01T02:22:35.843Z,926.89
2017-02-01T02:22:56.231Z,926.91
2017-02-01T02:23:16.596Z,926.9
2017-02-01T02:23:36.935Z,926.91
2017-02-01T02:23:57.301Z,926.88
2017-02-01T02:24:17.666Z,926.87
2017-02-01T02:24:38.029Z,926.88
2017-02-01T02:24:58.400Z,926.86
2017-02-01T02:25:18.778Z,926.86
2017-02-01T02:25:39.122Z,926.85
2017-02-01T02:25:59.490Z,926.83
2017-02-01T02:26:19.892Z,926.85
2017-02-01T02:26:40.265Z,926.84
2017-02-01T02:27:00.627Z,926.83
2017-02-01T02:27:21.016Z,926.82
2017-02-01T02:27:41.369Z,926.84
2017-02-01T02:28:01.735Z,926.81
2017-02-01T02:28:22.096Z,926.82
2017-02-01T02:28:42.503Z,926.82
2017-02-01T02:29:02.855Z,926.78
2017-02-01T02:29:23.211Z,926.78
2017-02-01T02:29:43.569Z,926.75
2017-02-01T02:30:03.933Z,926.78
2017-02-01T02:30:24.341Z,926.76
2017-02-01T02:30:44.730Z,926.75
2017-02-01T02:31:05.092Z,926.74
2017-02-01T02:31:25.451Z,926.76
2017-02-01T02:31:45.826Z,926.7
2017-02-01T02:32:06.187Z,926.73
2017-02-01T02:32:26.582Z,926.67
2017-02-01T02:32:46.322Z,926.67
2017-02-01T02:33:06.701Z,926.71
2017-02-01T02:33:27.055Z,926.69
2017-02-01T02:33:47.425Z,926.67
2017-02-01T02:34:07.784Z,926.67
2017-02-01T02:34:28.157Z,926.67
2017-02-01T02:34:48.531Z,926.61
2017-02-01T02:35:08.888Z,926.6
2017-02-01T02:35:29.249Z,926.61
2017-02-01T02:35:49.639Z,926.62
2017-02-01T02:36:10.013Z,926.61
2017-02-01T02:36:30.390Z,926.61
2017-02-01T02:36:50.739Z,926.58
2017-02-01T02:37:11.114Z,926.6
2017-02-01T02:37:31.509Z,926.58
2017-02-01T02:37:51.896Z,926.62
2017-02-01T02:38:12.275Z,926.59
2017-02-01T02:38:32.623Z,926.56
2017-02-01T02:38:53.025Z,926.58
2017-02-01T02:39:12.816Z,926.57
2017-02-01T02:39:33.225Z,926.56
2017-02-01T02:39:53.592Z,926.57
2017-02-01T02:40:27.718Z,926.56
2017-02-01T02:40:48.092Z,926.53
2017-02-01T02:41:08.495Z,926.51
2017-02-01T02:41:28.877Z,926.51
2017-02-01T02:41:49.250Z,926.56
2017-02-01T02:42:09.618Z,926.52
2017-02-01T02:42:30.010Z,926.56
2017-02-01T02:42:50.371Z,926.58
2017-02-01T02:43:10.731Z,926.53
2017-02-01T02:43:31.093Z,926.53
2017-02-01T02:43:51.447Z,926.53
2017-02-01T02:44:11.815Z,926.53
2017-02-01T02:44:32.192Z,926.53
2017-02-01T02:44:52.605Z,926.51
2017-02-01T02:45:12.990Z,926.53
2017-02-01T02:45:33.373Z,926.56
2017-02-01T02:45:53.758Z,926.55
2017-02-01T02:46:14.158Z,926.54
2017-02-01T02:46:34.540Z,926.55
2017-02-01T02:46:54.912Z,926.53
2017-02-01T02:47:14.678Z,926.52
2017-02-01T02:47:35.056Z,926.54
2017-02-01T02:47:58.185Z,926.53
2017-02-01T02:48:18.601Z,926.52
2017-02-01T02:48:38.307Z,926.53
2017-02-01T02:48:58.640Z,926.53
2017-02-01T02:49:18.992Z,926.49
2017-02-01T02:49:39.401Z,926.52
2017-02-01T02:49:59.170Z,926.54
2017-02-01T02:50:19.556Z,926.55
2017-02-01T02:50:39.934Z,926.51
2017-02-01T02:51:00.312Z,926.54
2017-02-01T02:51:20.720Z,926.53
2017-02-01T02:51:41.111Z,926.52
2017-02-01T02:52:00.841Z,926.56
2017-02-01T02:52:21.203Z,926.58
2017-02-01T02:52:41.584Z,926.56
2017-02-01T02:53:01.966Z,926.57
2017-02-01T02:53:22.321Z,926.58
2017-02-01T02:53:42.090Z,926.6
2017-02-01T02:54:02.480Z,926.57
2017-02-01T02:54:22.884Z,926.56
2017-02-01T02:54:43.350Z,926.55
2017-02-01T02:55:03.754Z,926.55
2017-02-01T02:55:24.149Z,926.54
2017-02-01T02:55:44.561Z,926.57
2017-02-01T02:56:04.921Z,926.57
2017-02-01T02:56:24.651Z,926.56
2017-02-01T02:56:45.036Z,926.53
2017-02-01T02:57:05.456Z,926.54
2017-02-01T02:57:25.852Z,926.52
2017-02-01T02:57:46.276Z,926.54
2017-02-01T02:58:06.063Z,926.51
2017-02-01T02:58:25.828Z,926.54
2017-02-01T02:58:46.263Z,926.52
2017-02-01T02:59:06.709Z,926.51
2017-02-01T02:59:27.102Z,926.52
2017-02-01T02:59:47.505Z,926.5
2017-02-01T03:00:07.908Z,926.54
2017-02-01T03:00:27.634Z,926.54
2017-02-01T03:00:49.448Z,926.51
2017-02-01T03:01:09.889Z,926.5
2017-02-01T03:01:30.297Z,926.55
2017-02-01T03:01:50.698Z,926.52
2017-02-01T03:02:11.127Z,926.53
2017-02-01T03:02:31.565Z,926.51
2017-02-01T03:02:51.976Z,926.54
2017-02-01T03:03:11.749Z,926.48
2017-02-01T03:03:32.145Z,926.48
2017-02-01T03:03:52.565Z,926.48
2017-02-01T03:04:13.019Z,926.5
2017-02-01T03:04:33.409Z,926.49
2017-02-01T03:04:53.922Z,926.5
2017-02-01T03:05:14.316Z,926.51
2017-02-01T03:05:34.706Z,926.49
2017-02-01T03:05:55.144Z,926.5
2017-02-01T03:06:14.911Z,926.48
2017-02-01T03:06:35.279Z,926.47
2017-02-01T03:06:55.686Z,926.47
2017-02-01T03:07:16.127Z,926.49
2017-02-01T03:07:35.890Z,926.46
2017-02-01T03:07:56.314Z,926.46
2017-02-01T03:08:16.701Z,926.47
2017-02-01T03:08:37.127Z,926.47
2017-02-01T03:08:57.522Z,926.47
2017-02-01T03:09:17.893Z,926.44
2017-02-01T03:09:38.299Z,926.44
2017-02-01T03:09:58.705Z,926.43
2017-02-01T03:10:19.106Z,926.4
2017-02-01T03:10:38.869Z,926.42
2017-02-01T03:10:59.304Z,926.42
2017-02-01T03:11:19.691Z,926.41
2017-02-01T03:11:39.484Z,926.38
2017-02-01T03:11:59.937Z,926.4
2017-02-01T03:12:20.323Z,926.44
2017-02-01T03:12:40.739Z,926.41
2017-02-01T03:13:01.125Z,926.43
2017-02-01T03:13:21.539Z,926.41
2017-02-01T03:13:41.928Z,926.4
2017-02-01T03:14:02.312Z,926.41
2017-02-01T03:14:22.693Z,926.4
2017-02-01T03:14:43.086Z,926.37
2017-02-01T03:15:03.466Z,926.37
2017-02-01T03:15:23.844Z,926.37
2017-02-01T03:15:44.226Z,926.34
2017-02-01T03:16:04.601Z,926.33
2017-02-01T03:16:23.713Z,926.33
2017-02-01T03:16:44.128Z,926.31
2017-02-01T03:17:04.553Z,926.28
2017-02-01T03:17:24.310Z,926.34
2017-02-01T03:17:44.749Z,926.31
2017-02-01T03:18:05.141Z,926.27
2017-02-01T03:18:25.551Z,926.29
2017-02-01T03:18:45.931Z,926.25
2017-02-01T03:19:06.312Z,926.25
2017-02-01T03:19:26.682Z,926.25
2017-02-01T03:19:47.149Z,926.23
2017-02-01T03:20:07.551Z,926.2
2017-02-01T03:20:27.970Z,926.23
2017-02-01T03:20:48.387Z,926.19
2017-02-01T03:21:08.778Z,926.22
2017-02-01T03:21:29.181Z,926.2
2017-02-01T03:21:49.559Z,926.18
2017-02-01T03:22:09.982Z,926.24
2017-02-01T03:22:30.027Z,926.19
2017-02-01T03:22:50.398Z,926.2
2017-02-01T03:23:10.820Z,926.21
2017-02-01T03:23:31.253Z,926.22
2017-02-01T03:23:51.673Z,926.19
2017-02-01T03:24:11.431Z,926.2
2017-02-01T03:24:31.808Z,926.21
2017-02-01T03:24:52.209Z,926.19
2017-02-01T03:25:12.630Z,926.18
2017-02-01T03:25:33.039Z,926.21
2017-02-01T03:25:53.429Z,926.21
2017-02-01T03:26:13.819Z,926.18
2017-02-01T03:26:32.943Z,926.18
2017-02-01T03:26:53.382Z,926.19
2017-02-01T03:27:13.780Z,926.17
2017-02-01T03:27:34.205Z,926.16
2017-02-01T03:27:54.623Z,926.16
2017-02-01T03:28:14.398Z,926.17
2017-02-01T03:28:34.773Z,926.17
2017-02-01T03:28:55.204Z,926.13
2017-02-01T03:29:15.633Z,926.14
2017-02-01T03:29:36.065Z,926.1
2017-02-01T03:29:56.470Z,926.16
2017-02-01T03:30:16.876Z,926.14
2017-02-01T03:30:37.270Z,926.12
2017-02-01T03:30:57.687Z,926.12
2017-02-01T03:31:18.093Z,926.05
2017-02-01T03:31:38.538Z,926.08
2017-02-01T03:31:58.988Z,926.09
2017-02-01T03:32:19.377Z,926.06
2017-02-01T03:32:39.164Z,926.06
2017-02-01T03:32:59.572Z,926.03
2017-02-01T03:33:19.988Z,926.05
2017-02-01T03:33:40.393Z,926.02
2017-02-01T03:34:00.817Z,926.02
2017-02-01T03:34:19.927Z,926.04
2017-02-01T03:34:39.675Z,926.01
2017-02-01T03:35:00.102Z,926.04
2017-02-01T03:35:20.491Z,926.04
2017-02-01T03:35:40.592Z,926
2017-02-01T03:36:01.180Z,926
2017-02-01T03:36:20.914Z,925.95
2017-02-01T03:36:41.258Z,925.96
2017-02-01T03:37:01.616Z,926
2017-02-01T03:37:21.983Z,925.97
2017-02-01T03:37:42.370Z,925.97
2017-02-01T03:38:03.333Z,925.96
2017-02-01T03:38:23.704Z,925.96
2017-02-01T03:38:43.457Z,925.92
2017-02-01T03:39:03.839Z,925.92
2017-02-01T03:39:24.226Z,925.94
2017-02-01T03:39:44.639Z,925.92
2017-02-01T03:40:05.037Z,925.92
2017-02-01T03:40:24.782Z,925.89
2017-02-01T03:40:45.184Z,925.9
2017-02-01T03:41:05.546Z,925.91
2017-02-01T03:41:25.924Z,925.9
2017-02-01T03:41:45.650Z,925.89
2017-02-01T03:42:06.105Z,925.87
2017-02-01T03:42:26.490Z,925.9
2017-02-01T03:42:46.882Z,925.87
2017-02-01T03:43:07.281Z,925.86
2017-02-01T03:43:27.683Z,925.87
2017-02-01T03:43:48.060Z,925.9
2017-02-01T03:44:07.800Z,925.92
2017-02-01T03:44:27.548Z,925.89
2017-02-01T03:44:47.970Z,925.88
2017-02-01T03:45:08.396Z,925.89
2017-02-01T03:45:28.806Z,925.88
2017-02-01T03:45:49.233Z,925.87
2017-02-01T03:46:09.614Z,925.84
2017-02-01T03:46:30.036Z,925.88
2017-02-01T03:46:50.440Z,925.83
2017-02-01T03:47:10.853Z,925.84
2017-02-01T03:47:31.219Z,925.85
2017-02-01T03:47:51.615Z,925.84
2017-02-01T03:48:12.027Z,925.85
2017-02-01T03:48:32.441Z,925.81
2017-02-01T03:48:52.856Z,925.85
2017-02-01T03:49:13.257Z,925.85
2017-02-01T03:49:33.641Z,925.86
2017-02-01T03:49:54.010Z,925.8
2017-02-01T03:50:14.642Z,925.84
2017-02-01T03:50:35.057Z,925.84
2017-02-01T03:50:55.441Z,925.81
2017-02-01T03:51:15.921Z,925.82
2017-02-01T03:51:36.299Z,925.8
2017-02-01T03:51:56.700Z,925.79
2017-02-01T03:52:17.286Z,925.73
2017-02-01T03:52:37.697Z,925.73
2017-02-01T03:52:58.081Z,925.75
2017-02-01T03:53:18.487Z,925.73
2017-02-01T03:53:38.897Z,925.71
2017-02-01T03:53:58.658Z,925.7
2017-02-01T03:54:19.069Z,925.7
2017-02-01T03:54:38.825Z,925.65
2017-02-01T03:54:59.238Z,925.73
2017-02-01T03:55:19.640Z,925.65
2017-02-01T03:55:40.042Z,925.67
2017-02-01T03:56:00.451Z,925.67
2017-02-01T03:56:20.192Z,925.69
2017-02-01T03:56:40.550Z,925.67
2017-02-01T03:57:00.923Z,925.7
2017-02-01T03:57:21.302Z,925.73
2017-02-01T03:57:41.736Z,925.69
2017-02-01T03:58:02.138Z,925.7
2017-02-01T03:58:21.243Z,925.69
2017-02-01T03:58:41.621Z,925.7
2017-02-01T03:59:01.998Z,925.69
2017-02-01T03:59:22.412Z,925.68
2017-02-01T03:59:42.174Z,925.68
2017-02-01T04:00:02.589Z,925.69
2017-02-01T04:00:22.981Z,925.7
2017-02-01T04:00:43.389Z,925.71
2017-02-01T04:01:03.785Z,925.69
2017-02-01T04:01:24.169Z,925.68
2017-02-01T04:01:44.566Z,925.71
2017-02-01T04:02:05.012Z,925.68
2017-02-01T04:02:25.420Z,925.7
2017-02-01T04:02:45.862Z,925.68
2017-02-01T04:03:06.248Z,925.66
2017-02-01T04:03:26.677Z,925.69
2017-02-01T04:03:47.066Z,925.68
2017-02-01T04:04:07.486Z,925.69
2017-02-01T04:04:27.274Z,925.7
2017-02-01T04:04:47.025Z,925.66
2017-02-01T04:05:07.374Z,925.66
2017-02-01T04:05:27.738Z,925.69
2017-02-01T04:05:48.118Z,925.68
2017-02-01T04:06:08.480Z,925.65
2017-02-01T04:06:28.276Z,925.69
2017-02-01T04:06:48.669Z,925.68
2017-02-01T04:07:09.047Z,925.67
2017-02-01T04:07:29.386Z,925.66
2017-02-01T04:07:48.510Z,925.64
2017-02-01T04:08:08.992Z,925.63
2017-02-01T04:08:32.964Z,925.65
2017-02-01T04:08:53.387Z,925.63
2017-02-01T04:09:13.783Z,925.63
2017-02-01T04:09:34.184Z,925.63
2017-02-01T04:09:53.914Z,925.63
2017-02-01T04:10:13.699Z,925.64
2017-02-01T04:10:34.136Z,925.62
2017-02-01T04:10:54.525Z,925.59
2017-02-01T04:11:14.936Z,925.59
2017-02-01T04:11:35.293Z,925.61
2017-02-01T04:11:55.681Z,925.61
2017-02-01T04:12:15.498Z,925.6
2017-02-01T04:12:35.874Z,925.63
2017-02-01T04:12:56.275Z,925.61
2017-02-01T04:13:16.681Z,925.6
2017-02-01T04:13:37.073Z,925.59
2017-02-01T04:13:57.502Z,925.6
2017-02-01T04:14:17.897Z,925.6
2017-02-01T04:14:38.300Z,925.55